Terminal Aerodrome Forecast
Issued by NWS Bismarck, ND

Home | Current Version | Previous Version | Text Only | Print | Product List | Glossary Off
Versions: 1 2 3 4 5 6 7 8 9 10 11 12 13 14 15 16 17 18 19 20 21

000
FTUS43 KBIS 310122 AAA
TAFISN
TAF AMD
KISN 310122Z 3101/3124 35004KT 2SM -RA BR SCT005 OVC018
     FM310300 29006KT 6SM -SHRA OVC020
     FM310900 30008KT 5SM SHRA OVC015
     FM311200 31010KT 4SM SHRA OVC008
     FM311600 33016KT 5SM SHRA OVC010 WS020/34050KT
     FM312000 33021KT P6SM -SHRA OVC015=

USA.gov is the U.S. government's official web portal to all federal, state and local government web resources and services.